Stations météo

réclame
Mon MeteoGroup
Fuengirola, Espagne (8480): Température de l'air & dewpoint: 11.02.2019 13:00:00 - 17.02.2019 13:00:00 (CET)Fuengirola, Espagne (8480): Vitesse du vent & gusts: 11.02.2019 13:00:00 - 17.02.2019 13:00:00 (CET)Fuengirola, Espagne (8480): Direction du vent: 11.02.2019 13:00:00 - 17.02.2019 13:00:00 (CET)Fuengirola, Espagne (8480): Quantités de précipitations: 11.02.2019 13:00:00 - 17.02.2019 13:00:00 (CET)
Date & Time tt [°C] td [°C] ff [km/h] ff [knt] fx [km/h] fx [knt] dd rr [mm]
17.02.2019 13:00:00 - - - - - - - -
17.02.2019 12:00:00 15,2 13,1 12 6 19 10 E 0,0
17.02.2019 11:00:00 15,0 13,0 13 7 23 12 E 0,0
17.02.2019 10:00:00 14,6 13,0 16 9 23 13 ESE 0,0
17.02.2019 09:00:00 14,4 12,8 17 9 23 12 SE 0,0
17.02.2019 08:00:00 14,4 13,0 17 9 22 12 ESE 0,0
17.02.2019 07:00:00 14,0 12,4 15 8 22 12 ESE -
17.02.2019 06:00:00 14,1 12,5 11 6 16 9 ESE 0,0
17.02.2019 05:00:00 14,1 12,5 11 6 16 9 ESE 0,0
17.02.2019 04:00:00 14,2 12,4 7 4 16 8 ESE 0,0
17.02.2019 03:00:00 14,6 12,8 9 5 17 9 SSE 0,0
17.02.2019 02:00:00 14,6 12,8 14 7 23 12 SE 0,0
17.02.2019 01:00:00 14,7 13,1 7 4 16 8 SE -
17.02.2019 00:00:00 14,8 13,2 14 8 21 12 ESE 0,0
16.02.2019 23:00:00 14,9 13,3 18 10 26 14 ESE 0,0
16.02.2019 22:00:00 14,9 12,9 18 10 28 15 ESE 0,0
16.02.2019 21:00:00 14,8 12,7 22 12 31 17 ESE 0,0
16.02.2019 20:00:00 14,9 12,8 21 12 30 16 ESE 0,0
16.02.2019 19:00:00 15,1 13,1 20 11 31 17 ESE -
16.02.2019 18:00:00 15,3 13,0 22 12 36 19 ESE 0,0
16.02.2019 17:00:00 15,5 13,2 27 15 38 20 ESE 0,0
16.02.2019 16:00:00 15,4 13,3 27 15 40 22 ESE 0,0
16.02.2019 15:00:00 15,2 13,1 23 12 63 34 SE 0,0
16.02.2019 14:00:00 15,1 13,1 24 13 34 18 SE 0,0
16.02.2019 13:00:00 15,0 13,0 26 14 36 19 SE -
16.02.2019 12:00:00 14,8 12,8 24 13 37 20 SE 0,0
16.02.2019 11:00:00 14,6 12,6 26 14 40 22 SE 0,0
16.02.2019 10:00:00 14,6 12,6 26 14 39 21 SE 0,0
16.02.2019 09:00:00 14,1 12,7 18 10 35 19 SE 0,0
16.02.2019 08:00:00 12,9 11,8 6 3 13 7 WNW 0,0
16.02.2019 07:00:00 13,0 11,9 8 4 13 7 NW -
16.02.2019 06:00:00 13,3 12,2 4 2 10 5 NW 0,0
16.02.2019 05:00:00 14,2 12,6 1 1 16 8 E 0,0
16.02.2019 04:00:00 14,3 13,0 13 7 19 10 SE 0,0
16.02.2019 03:00:00 14,6 13,3 11 6 23 13 E 0,0
16.02.2019 02:00:00 14,5 13,2 13 7 20 11 E 0,0
16.02.2019 01:00:00 14,8 13,5 15 8 25 13 ESE -
16.02.2019 00:00:00 14,8 13,5 18 10 25 13 SE 0,0
15.02.2019 23:00:00 14,9 13,4 16 9 24 13 SE 0,0
15.02.2019 22:00:00 14,7 13,1 17 9 26 14 ESE 0,0
15.02.2019 21:00:00 14,5 12,9 15 8 24 13 E 0,0
15.02.2019 20:00:00 14,7 12,7 16 9 27 15 E 0,0
15.02.2019 19:00:00 14,8 12,7 14 8 26 14 E -
15.02.2019 18:00:00 14,9 12,6 19 11 30 16 ESE 0,0
15.02.2019 17:00:00 15,1 12,8 16 9 31 17 ESE 0,0
15.02.2019 16:00:00 15,1 13,0 23 12 30 16 ESE 0,0
15.02.2019 15:00:00 14,9 12,8 22 12 30 16 ESE 0,0
15.02.2019 14:00:00 14,7 12,6 17 9 30 16 E 0,0
15.02.2019 13:00:00 14,5 12,5 19 10 29 16 E -
15.02.2019 12:00:00 14,3 12,2 17 9 29 15 E 0,0
15.02.2019 11:00:00 14,4 12,3 18 10 30 16 E 0,0
15.02.2019 10:00:00 14,3 12,0 19 11 30 16 E 0,0
15.02.2019 09:00:00 14,2 12,1 16 9 26 14 E 0,0
15.02.2019 08:00:00 14,3 12,0 18 10 29 15 E 0,0
15.02.2019 07:00:00 14,4 11,9 19 10 29 16 ESE -
15.02.2019 06:00:00 14,6 12,5 22 12 28 15 ESE 0,0
15.02.2019 05:00:00 14,6 12,3 18 10 26 14 ESE 0,0
15.02.2019 04:00:00 14,6 12,6 18 10 29 16 ESE 0,0
15.02.2019 03:00:00 14,6 12,8 20 11 32 18 ESE 0,0
15.02.2019 02:00:00 14,7 12,9 21 11 28 15 ESE 0,0
15.02.2019 01:00:00 14,7 12,9 20 11 25 14 ESE -
15.02.2019 00:00:00 14,6 12,6 15 8 21 11 ESE 0,0
14.02.2019 23:00:00 14,5 12,5 11 6 20 11 E 0,0
14.02.2019 22:00:00 14,5 12,5 16 9 21 12 ESE 0,0
14.02.2019 21:00:00 14,2 12,2 16 9 22 12 ESE 0,0
14.02.2019 20:00:00 14,2 12,1 12 7 28 15 E 0,0
14.02.2019 19:00:00 14,2 11,9 16 9 25 13 E -
14.02.2019 18:00:00 14,8 11,9 15 8 24 13 E 0,0
14.02.2019 17:00:00 15,3 12,2 15 8 26 14 ESE 0,0
14.02.2019 16:00:00 15,5 12,4 20 11 26 14 ESE 0,0
14.02.2019 15:00:00 15,3 12,2 17 9 24 13 ESE 0,0
14.02.2019 14:00:00 15,2 12,0 18 10 33 18 ESE 0,0
14.02.2019 13:00:00 15,0 11,8 23 13 33 18 SE -
14.02.2019 12:00:00 14,6 11,9 23 12 35 19 ESE 0,0
14.02.2019 11:00:00 14,3 11,8 23 12 32 17 SE 0,0
14.02.2019 10:00:00 14,1 11,4 22 12 32 17 ESE 0,0
14.02.2019 09:00:00 14,0 11,5 23 13 32 17 ESE 0,0
14.02.2019 08:00:00 13,9 11,6 22 12 32 17 ESE 0,0
14.02.2019 07:00:00 13,8 11,5 23 13 32 17 ESE -
14.02.2019 06:00:00 13,8 11,3 20 11 32 18 ESE 0,0
14.02.2019 05:00:00 14,0 11,7 22 12 30 16 ESE 0,0
14.02.2019 04:00:00 14,0 11,9 21 11 30 16 ESE 0,0
14.02.2019 03:00:00 14,2 12,1 23 12 29 16 ESE 0,0
14.02.2019 02:00:00 14,2 12,2 19 10 28 15 ESE 0,0
14.02.2019 01:00:00 14,3 12,3 21 11 29 16 ESE -
14.02.2019 00:00:00 14,3 12,3 21 11 29 15 ESE 0,0
13.02.2019 23:00:00 14,3 12,3 19 10 25 13 ESE 0,0
13.02.2019 22:00:00 14,2 12,4 14 8 22 12 ESE 0,0
13.02.2019 21:00:00 14,3 12,5 12 7 21 11 ESE 0,0
13.02.2019 20:00:00 14,4 12,6 14 7 20 11 ESE 0,0
13.02.2019 19:00:00 14,5 12,4 11 6 19 10 E -
13.02.2019 18:00:00 14,9 12,2 12 7 20 11 ESE 0,0
13.02.2019 17:00:00 15,2 12,2 15 8 23 12 ESE 0,0
13.02.2019 16:00:00 15,4 12,5 17 9 24 13 ESE 0,0
13.02.2019 15:00:00 15,3 12,4 15 8 23 12 ESE 0,0
13.02.2019 14:00:00 15,3 12,4 16 9 25 14 ESE 0,0
13.02.2019 13:00:00 - - - - - - - -
13.02.2019 12:00:00 15,0 12,1 18 10 27 14 ESE 0,0
13.02.2019 11:00:00 14,1 11,1 12 6 18 10 E 0,0
13.02.2019 10:00:00 13,9 11,1 10 6 18 10 E 0,0
13.02.2019 09:00:00 13,4 10,9 9 5 18 10 E 0,0
13.02.2019 08:00:00 13,4 10,9 11 6 20 11 ENE 0,0
13.02.2019 07:00:00 13,5 11,4 11 6 18 10 ENE -
13.02.2019 06:00:00 13,7 11,6 11 6 31 17 ENE 0,0
13.02.2019 05:00:00 14,1 12,0 19 11 29 16 ESE 0,0
13.02.2019 04:00:00 14,2 11,9 21 12 64 35 ESE 0,0
13.02.2019 03:00:00 14,3 12,7 17 9 34 18 E 0,0
13.02.2019 02:00:00 14,3 12,7 19 10 - - ESE -
13.02.2019 01:00:00 14,5 12,7 20 11 35 19 E -
13.02.2019 00:00:00 14,5 12,7 19 11 34 19 E 0,0
12.02.2019 23:00:00 14,3 12,9 18 10 27 14 E 0,0
12.02.2019 22:00:00 14,3 13,0 14 8 24 13 ENE 0,0
12.02.2019 21:00:00 14,4 13,0 15 8 29 16 E 0,0
12.02.2019 20:00:00 14,4 12,8 20 11 29 16 E 0,0
12.02.2019 19:00:00 14,4 12,6 18 10 33 18 E -
12.02.2019 18:00:00 14,9 12,8 19 10 32 17 E 0,0
12.02.2019 17:00:00 14,9 12,9 23 12 37 20 ESE 0,0
12.02.2019 16:00:00 15,0 12,9 23 12 38 20 ESE 0,0
12.02.2019 15:00:00 15,1 13,0 26 14 38 21 ESE 0,0
12.02.2019 14:00:00 15,1 13,0 26 14 42 23 ESE 0,0
12.02.2019 13:00:00 - - - - - - - -
12.02.2019 12:00:00 15,2 13,6 22 12 37 20 ESE 0,0
12.02.2019 11:00:00 15,0 13,7 20 11 34 19 E 0,0
12.02.2019 10:00:00 15,1 14,1 22 12 34 19 E 0,0
12.02.2019 09:00:00 15,0 14,4 21 11 30 16 E 0,0
12.02.2019 08:00:00 14,9 14,3 19 11 31 17 E 0,0
12.02.2019 07:00:00 15,0 14,4 21 11 34 18 E -
12.02.2019 06:00:00 15,0 14,2 21 11 32 17 E 0,0
12.02.2019 05:00:00 15,0 13,9 11 6 19 10 E 0,0
12.02.2019 04:00:00 15,0 13,5 14 7 27 15 E 0,0
12.02.2019 03:00:00 14,5 12,4 16 9 24 13 E 0,0
12.02.2019 02:00:00 13,6 11,0 3 2 8 4 NW 0,0
12.02.2019 01:00:00 13,6 11,3 3 2 6 3 NW -
12.02.2019 00:00:00 14,0 12,0 1 1 8 4 W 0,0
11.02.2019 23:00:00 14,1 12,3 3 1 10 5 NW 0,0
11.02.2019 22:00:00 14,5 14,0 3 2 10 5 NNW 0,0
11.02.2019 21:00:00 15,3 15,0 3 2 8 4 NE 0,0
11.02.2019 20:00:00 15,7 15,4 5 3 8 5 ENE 0,0
11.02.2019 19:00:00 16,2 15,4 3 2 6 3 NE -
11.02.2019 18:00:00 17,3 15,8 2 1 11 6 ENE 0,0
11.02.2019 17:00:00 17,7 15,7 5 3 11 6 SE 0,0
11.02.2019 16:00:00 17,2 14,1 8 4 14 8 SSW 0,0
11.02.2019 15:00:00 16,5 14,9 11 6 19 10 SSW 0,0
11.02.2019 14:00:00 16,3 14,7 13 7 21 11 SSW 0,0
11.02.2019 13:00:00 16,7 15,1 9 5 16 8 SSW -

tt = Température de l'air
td = dewpoint
ff = Vitesse du vent
fx = gusts
dd = Direction du vent
rr = Quantités de précipitations

stations d'obs. à proximité